sensor_id;sensor_type;location;lat;lon;timestamp;P1;P2;P0
47982;PMS5003;33751;50.816;-1.214;2022-09-21T00:02:14;5;5;
47982;PMS5003;33751;50.816;-1.214;2022-09-21T00:04:41;6;6;
47982;PMS5003;33751;50.816;-1.214;2022-09-21T00:07:07;6;5;
47982;PMS5003;33751;50.816;-1.214;2022-09-21T00:09:34;8;6;
47982;PMS5003;33751;50.816;-1.214;2022-09-21T00:12:00;9;7;
47982;PMS5003;33751;50.816;-1.214;2022-09-21T00:14:28;7;7;
47982;PMS5003;33751;50.816;-1.214;2022-09-21T00:16:55;6;6;
47982;PMS5003;33751;50.816;-1.214;2022-09-21T00:19:21;5;5;
47982;PMS5003;33751;50.816;-1.214;2022-09-21T00:21:48;5;5;
47982;PMS5003;33751;50.816;-1.214;2022-09-21T00:24:19;7;5;
47982;PMS5003;33751;50.816;-1.214;2022-09-21T00:26:46;6;6;
47982;PMS5003;33751;50.816;-1.214;2022-09-21T00:29:13;4;4;
47982;PMS5003;33751;50.816;-1.214;2022-09-21T00:31:40;14;6;
47982;PMS5003;33751;50.816;-1.214;2022-09-21T00:34:07;8;6;
47982;PMS5003;33751;50.816;-1.214;2022-09-21T00:36:33;7;7;
47982;PMS5003;33751;50.816;-1.214;2022-09-21T00:39:01;7;5;
47982;PMS5003;33751;50.816;-1.214;2022-09-21T00:41:30;6;6;
47982;PMS5003;33751;50.816;-1.214;2022-09-21T00:44:31;10;6;
47982;PMS5003;33751;50.816;-1.214;2022-09-21T00:47:00;6;6;
47982;PMS5003;33751;50.816;-1.214;2022-09-21T00:49:31;8;8;
47982;PMS5003;33751;50.816;-1.214;2022-09-21T00:52:00;9;6;
47982;PMS5003;33751;50.816;-1.214;2022-09-21T00:54:30;10;8;
47982;PMS5003;33751;50.816;-1.214;2022-09-21T00:57:01;7;7;
47982;PMS5003;33751;50.816;-1.214;2022-09-21T00:59:29;7;5;
47982;PMS5003;33751;50.816;-1.214;2022-09-21T01:01:58;9;7;
47982;PMS5003;33751;50.816;-1.214;2022-09-21T01:04:25;6;6;
47982;PMS5003;33751;50.816;-1.214;2022-09-21T01:06:52;7;7;
47982;PMS5003;33751;50.816;-1.214;2022-09-21T01:09:21;8;7;
47982;PMS5003;33751;50.816;-1.214;2022-09-21T01:11:51;8;7;
47982;PMS5003;33751;50.816;-1.214;2022-09-21T01:14:39;7;6;
47982;PMS5003;33751;50.816;-1.214;2022-09-21T01:17:23;11;4;
47982;PMS5003;33751;50.816;-1.214;2022-09-21T01:20:06;7;7;
47982;PMS5003;33751;50.816;-1.214;2022-09-21T01:22:59;7;5;
47982;PMS5003;33751;50.816;-1.214;2022-09-21T01:25:40;13;7;
47982;PMS5003;33751;50.816;-1.214;2022-09-21T01:28:23;7;7;
47982;PMS5003;33751;50.816;-1.214;2022-09-21T01:31:00;10;7;
47982;PMS5003;33751;50.816;-1.214;2022-09-21T01:33:33;11;7;
47982;PMS5003;33751;50.816;-1.214;2022-09-21T01:36:06;10;8;
47982;PMS5003;33751;50.816;-1.214;2022-09-21T01:38:37;8;5;
47982;PMS5003;33751;50.816;-1.214;2022-09-21T01:41:09;6;5;
47982;PMS5003;33751;50.816;-1.214;2022-09-21T01:43:42;6;6;
47982;PMS5003;33751;50.816;-1.214;2022-09-21T01:46:13;12;10;
47982;PMS5003;33751;50.816;-1.214;2022-09-21T01:48:45;6;6;
47982;PMS5003;33751;50.816;-1.214;2022-09-21T01:51:15;9;7;
47982;PMS5003;33751;50.816;-1.214;2022-09-21T01:53:46;8;5;
47982;PMS5003;33751;50.816;-1.214;2022-09-21T01:56:17;9;9;
47982;PMS5003;33751;50.816;-1.214;2022-09-21T01:58:51;4;4;
47982;PMS5003;33751;50.816;-1.214;2022-09-21T02:01:28;8;6;
47982;PMS5003;33751;50.816;-1.214;2022-09-21T02:04:01;9;7;
47982;PMS5003;33751;50.816;-1.214;2022-09-21T02:06:34;8;6;
47982;PMS5003;33751;50.816;-1.214;2022-09-21T02:09:05;9;9;
47982;PMS5003;33751;50.816;-1.214;2022-09-21T02:11:34;7;7;
47982;PMS5003;33751;50.816;-1.214;2022-09-21T02:14:03;9;7;
47982;PMS5003;33751;50.816;-1.214;2022-09-21T02:16:33;9;9;
47982;PMS5003;33751;50.816;-1.214;2022-09-21T02:19:06;11;10;
47982;PMS5003;33751;50.816;-1.214;2022-09-21T02:21:39;7;7;
47982;PMS5003;33751;50.816;-1.214;2022-09-21T02:24:21;9;7;
47982;PMS5003;33751;50.816;-1.214;2022-09-21T02:26:57;11;11;
47982;PMS5003;33751;50.816;-1.214;2022-09-21T02:29:35;8;8;
47982;PMS5003;33751;50.816;-1.214;2022-09-21T02:32:15;7;7;
47982;PMS5003;33751;50.816;-1.214;2022-09-21T02:34:50;8;6;
47982;PMS5003;33751;50.816;-1.214;2022-09-21T02:37:22;9;9;
47982;PMS5003;33751;50.816;-1.214;2022-09-21T02:40:02;7;7;
47982;PMS5003;33751;50.816;-1.214;2022-09-21T02:42:37;9;8;
47982;PMS5003;33751;50.816;-1.214;2022-09-21T02:45:08;20;12;
47982;PMS5003;33751;50.816;-1.214;2022-09-21T02:47:45;14;11;
47982;PMS5003;33751;50.816;-1.214;2022-09-21T02:50:18;9;9;
47982;PMS5003;33751;50.816;-1.214;2022-09-21T02:52:49;9;9;
47982;PMS5003;33751;50.816;-1.214;2022-09-21T02:55:19;16;11;
47982;PMS5003;33751;50.816;-1.214;2022-09-21T02:57:47;11;9;
47982;PMS5003;33751;50.816;-1.214;2022-09-21T03:00:15;12;11;
47982;PMS5003;33751;50.816;-1.214;2022-09-21T03:02:43;8;8;
47982;PMS5003;33751;50.816;-1.214;2022-09-21T03:05:11;11;11;
47982;PMS5003;33751;50.816;-1.214;2022-09-21T03:07:40;9;9;
47982;PMS5003;33751;50.816;-1.214;2022-09-21T03:10:07;9;9;
47982;PMS5003;33751;50.816;-1.214;2022-09-21T03:12:35;10;10;
47982;PMS5003;33751;50.816;-1.214;2022-09-21T03:15:03;7;6;
47982;PMS5003;33751;50.816;-1.214;2022-09-21T03:17:32;9;9;
47982;PMS5003;33751;50.816;-1.214;2022-09-21T03:19:59;8;7;
47982;PMS5003;33751;50.816;-1.214;2022-09-21T03:22:26;8;7;
47982;PMS5003;33751;50.816;-1.214;2022-09-21T03:24:53;9;9;
47982;PMS5003;33751;50.816;-1.214;2022-09-21T03:27:20;10;7;
47982;PMS5003;33751;50.816;-1.214;2022-09-21T03:29:47;8;7;
47982;PMS5003;33751;50.816;-1.214;2022-09-21T03:32:14;9;8;
47982;PMS5003;33751;50.816;-1.214;2022-09-21T03:34:41;11;9;
47982;PMS5003;33751;50.816;-1.214;2022-09-21T03:37:08;10;9;
47982;PMS5003;33751;50.816;-1.214;2022-09-21T03:39:36;8;8;
47982;PMS5003;33751;50.816;-1.214;2022-09-21T03:42:03;9;6;
47982;PMS5003;33751;50.816;-1.214;2022-09-21T03:44:31;8;8;
47982;PMS5003;33751;50.816;-1.214;2022-09-21T03:46:59;11;9;
47982;PMS5003;33751;50.816;-1.214;2022-09-21T03:49:26;7;7;
47982;PMS5003;33751;50.816;-1.214;2022-09-21T03:51:52;10;7;
47982;PMS5003;33751;50.816;-1.214;2022-09-21T03:54:20;7;7;
47982;PMS5003;33751;50.816;-1.214;2022-09-21T03:56:47;9;8;
47982;PMS5003;33751;50.816;-1.214;2022-09-21T03:59:14;10;9;
47982;PMS5003;33751;50.816;-1.214;2022-09-21T04:01:42;11;6;
47982;PMS5003;33751;50.816;-1.214;2022-09-21T04:04:10;9;7;
47982;PMS5003;33751;50.816;-1.214;2022-09-21T04:06:37;17;9;
47982;PMS5003;33751;50.816;-1.214;2022-09-21T04:09:04;9;8;
47982;PMS5003;33751;50.816;-1.214;2022-09-21T04:11:31;6;4;
47982;PMS5003;33751;50.816;-1.214;2022-09-21T04:13:59;11;8;
47982;PMS5003;33751;50.816;-1.214;2022-09-21T04:16:26;6;5;
47982;PMS5003;33751;50.816;-1.214;2022-09-21T04:18:53;7;7;
47982;PMS5003;33751;50.816;-1.214;2022-09-21T04:21:20;7;6;
47982;PMS5003;33751;50.816;-1.214;2022-09-21T04:23:47;9;9;
47982;PMS5003;33751;50.816;-1.214;2022-09-21T04:26:18;10;10;
47982;PMS5003;33751;50.816;-1.214;2022-09-21T04:28:47;8;8;
47982;PMS5003;33751;50.816;-1.214;2022-09-21T04:31:15;10;9;
47982;PMS5003;33751;50.816;-1.214;2022-09-21T04:33:42;8;8;
47982;PMS5003;33751;50.816;-1.214;2022-09-21T04:36:09;9;8;
47982;PMS5003;33751;50.816;-1.214;2022-09-21T04:38:35;10;10;
47982;PMS5003;33751;50.816;-1.214;2022-09-21T04:41:03;6;6;
47982;PMS5003;33751;50.816;-1.214;2022-09-21T04:43:30;9;8;
47982;PMS5003;33751;50.816;-1.214;2022-09-21T04:46:03;7;7;
47982;PMS5003;33751;50.816;-1.214;2022-09-21T04:48:32;12;10;
47982;PMS5003;33751;50.816;-1.214;2022-09-21T04:51:00;8;8;
47982;PMS5003;33751;50.816;-1.214;2022-09-21T04:53:27;5;5;
47982;PMS5003;33751;50.816;-1.214;2022-09-21T04:55:55;7;6;
47982;PMS5003;33751;50.816;-1.214;2022-09-21T04:58:22;14;7;
47982;PMS5003;33751;50.816;-1.214;2022-09-21T05:00:49;10;9;
47982;PMS5003;33751;50.816;-1.214;2022-09-21T05:03:17;7;7;
47982;PMS5003;33751;50.816;-1.214;2022-09-21T05:05:46;7;7;
47982;PMS5003;33751;50.816;-1.214;2022-09-21T05:08:13;7;7;
47982;PMS5003;33751;50.816;-1.214;2022-09-21T05:10:40;8;8;
47982;PMS5003;33751;50.816;-1.214;2022-09-21T05:13:08;10;8;
47982;PMS5003;33751;50.816;-1.214;2022-09-21T05:15:36;9;9;
47982;PMS5003;33751;50.816;-1.214;2022-09-21T05:18:03;8;8;
47982;PMS5003;33751;50.816;-1.214;2022-09-21T05:20:29;6;6;
47982;PMS5003;33751;50.816;-1.214;2022-09-21T05:22:58;8;8;
47982;PMS5003;33751;50.816;-1.214;2022-09-21T05:25:25;10;10;
47982;PMS5003;33751;50.816;-1.214;2022-09-21T05:27:52;8;7;
47982;PMS5003;33751;50.816;-1.214;2022-09-21T05:30:18;10;9;
47982;PMS5003;33751;50.816;-1.214;2022-09-21T05:32:47;7;7;
47982;PMS5003;33751;50.816;-1.214;2022-09-21T05:35:23;7;7;
47982;PMS5003;33751;50.816;-1.214;2022-09-21T05:37:58;7;7;
47982;PMS5003;33751;50.816;-1.214;2022-09-21T05:40:32;8;7;
47982;PMS5003;33751;50.816;-1.214;2022-09-21T05:42:59;9;9;
47982;PMS5003;33751;50.816;-1.214;2022-09-21T05:45:27;7;6;
47982;PMS5003;33751;50.816;-1.214;2022-09-21T05:47:55;5;5;
47982;PMS5003;33751;50.816;-1.214;2022-09-21T05:50:33;5;5;
47982;PMS5003;33751;50.816;-1.214;2022-09-21T05:53:12;7;7;
47982;PMS5003;33751;50.816;-1.214;2022-09-21T05:55:50;9;8;
47982;PMS5003;33751;50.816;-1.214;2022-09-21T05:58:24;10;9;
47982;PMS5003;33751;50.816;-1.214;2022-09-21T06:01:02;11;9;
47982;PMS5003;33751;50.816;-1.214;2022-09-21T06:03:40;8;7;
47982;PMS5003;33751;50.816;-1.214;2022-09-21T06:06:08;10;8;
47982;PMS5003;33751;50.816;-1.214;2022-09-21T06:08:35;8;7;
47982;PMS5003;33751;50.816;-1.214;2022-09-21T06:11:02;11;9;
47982;PMS5003;33751;50.816;-1.214;2022-09-21T06:13:30;9;7;
47982;PMS5003;33751;50.816;-1.214;2022-09-21T06:15:56;8;8;
47982;PMS5003;33751;50.816;-1.214;2022-09-21T06:18:27;7;7;
47982;PMS5003;33751;50.816;-1.214;2022-09-21T06:20:54;12;10;
47982;PMS5003;33751;50.816;-1.214;2022-09-21T06:23:21;11;11;
47982;PMS5003;33751;50.816;-1.214;2022-09-21T06:25:50;12;12;
47982;PMS5003;33751;50.816;-1.214;2022-09-21T06:28:17;11;11;
47982;PMS5003;33751;50.816;-1.214;2022-09-21T06:30:49;13;10;
47982;PMS5003;33751;50.816;-1.214;2022-09-21T06:33:16;18;12;
47982;PMS5003;33751;50.816;-1.214;2022-09-21T06:35:43;12;9;
47982;PMS5003;33751;50.816;-1.214;2022-09-21T06:38:17;14;8;
47982;PMS5003;33751;50.816;-1.214;2022-09-21T06:40:44;10;10;
47982;PMS5003;33751;50.816;-1.214;2022-09-21T06:43:11;11;10;
47982;PMS5003;33751;50.816;-1.214;2022-09-21T06:45:37;7;7;
47982;PMS5003;33751;50.816;-1.214;2022-09-21T06:48:04;8;8;
47982;PMS5003;33751;50.816;-1.214;2022-09-21T06:50:30;7;7;
47982;PMS5003;33751;50.816;-1.214;2022-09-21T06:52:58;8;7;
47982;PMS5003;33751;50.816;-1.214;2022-09-21T06:55:26;6;6;
47982;PMS5003;33751;50.816;-1.214;2022-09-21T06:57:54;8;8;
47982;PMS5003;33751;50.816;-1.214;2022-09-21T07:00:25;10;8;
47982;PMS5003;33751;50.816;-1.214;2022-09-21T07:02:52;8;7;
47982;PMS5003;33751;50.816;-1.214;2022-09-21T07:05:18;6;5;
47982;PMS5003;33751;50.816;-1.214;2022-09-21T07:07:45;8;8;
47982;PMS5003;33751;50.816;-1.214;2022-09-21T07:10:12;9;9;
47982;PMS5003;33751;50.816;-1.214;2022-09-21T07:12:39;7;7;
47982;PMS5003;33751;50.816;-1.214;2022-09-21T07:15:07;11;8;
47982;PMS5003;33751;50.816;-1.214;2022-09-21T07:17:35;8;8;
47982;PMS5003;33751;50.816;-1.214;2022-09-21T07:20:04;10;9;
47982;PMS5003;33751;50.816;-1.214;2022-09-21T07:22:33;8;7;
47982;PMS5003;33751;50.816;-1.214;2022-09-21T07:25:01;10;10;
47982;PMS5003;33751;50.816;-1.214;2022-09-21T07:27:30;9;8;
47982;PMS5003;33751;50.816;-1.214;2022-09-21T07:29:58;11;8;
47982;PMS5003;33751;50.816;-1.214;2022-09-21T07:32:25;7;7;
47982;PMS5003;33751;50.816;-1.214;2022-09-21T07:34:52;8;8;
47982;PMS5003;33751;50.816;-1.214;2022-09-21T07:37:20;9;7;
47982;PMS5003;33751;50.816;-1.214;2022-09-21T07:39:47;10;8;
47982;PMS5003;33751;50.816;-1.214;2022-09-21T07:42:15;5;5;
47982;PMS5003;33751;50.816;-1.214;2022-09-21T07:44:41;9;6;
47982;PMS5003;33751;50.816;-1.214;2022-09-21T07:47:09;13;8;
47982;PMS5003;33751;50.816;-1.214;2022-09-21T07:49:35;7;7;
47982;PMS5003;33751;50.816;-1.214;2022-09-21T07:52:02;12;8;
47982;PMS5003;33751;50.816;-1.214;2022-09-21T07:54:29;7;7;
47982;PMS5003;33751;50.816;-1.214;2022-09-21T07:56:56;5;4;
47982;PMS5003;33751;50.816;-1.214;2022-09-21T07:59:23;9;7;
47982;PMS5003;33751;50.816;-1.214;2022-09-21T08:01:50;8;7;
47982;PMS5003;33751;50.816;-1.214;2022-09-21T08:04:16;9;7;
47982;PMS5003;33751;50.816;-1.214;2022-09-21T08:06:43;10;8;
47982;PMS5003;33751;50.816;-1.214;2022-09-21T08:09:10;8;8;
47982;PMS5003;33751;50.816;-1.214;2022-09-21T08:11:37;8;7;
47982;PMS5003;33751;50.816;-1.214;2022-09-21T08:14:04;6;5;
47982;PMS5003;33751;50.816;-1.214;2022-09-21T08:16:31;7;5;
47982;PMS5003;33751;50.816;-1.214;2022-09-21T08:18:58;5;5;
47982;PMS5003;33751;50.816;-1.214;2022-09-21T08:21:25;7;5;
47982;PMS5003;33751;50.816;-1.214;2022-09-21T08:23:52;6;6;
47982;PMS5003;33751;50.816;-1.214;2022-09-21T08:26:19;6;6;
47982;PMS5003;33751;50.816;-1.214;2022-09-21T08:28:46;5;5;
47982;PMS5003;33751;50.816;-1.214;2022-09-21T08:31:15;5;5;
47982;PMS5003;33751;50.816;-1.214;2022-09-21T08:33:44;5;5;
47982;PMS5003;33751;50.816;-1.214;2022-09-21T08:36:11;5;5;
47982;PMS5003;33751;50.816;-1.214;2022-09-21T08:38:39;3;3;
47982;PMS5003;33751;50.816;-1.214;2022-09-21T08:41:12;4;4;
47982;PMS5003;33751;50.816;-1.214;2022-09-21T08:43:42;7;6;
47982;PMS5003;33751;50.816;-1.214;2022-09-21T08:46:12;5;5;
47982;PMS5003;33751;50.816;-1.214;2022-09-21T08:48:44;4;4;
47982;PMS5003;33751;50.816;-1.214;2022-09-21T08:51:15;3;3;
47982;PMS5003;33751;50.816;-1.214;2022-09-21T08:53:47;5;3;
47982;PMS5003;33751;50.816;-1.214;2022-09-21T08:56:16;4;4;
47982;PMS5003;33751;50.816;-1.214;2022-09-21T08:58:45;3;3;
47982;PMS5003;33751;50.816;-1.214;2022-09-21T09:01:24;3;3;
47982;PMS5003;33751;50.816;-1.214;2022-09-21T09:04:05;2;2;
47982;PMS5003;33751;50.816;-1.214;2022-09-21T09:06:48;5;4;
47982;PMS5003;33751;50.816;-1.214;2022-09-21T09:09:58;7;6;
47982;PMS5003;33751;50.816;-1.214;2022-09-21T09:12:36;4;4;
47982;PMS5003;33751;50.816;-1.214;2022-09-21T09:15:16;5;4;
47982;PMS5003;33751;50.816;-1.214;2022-09-21T09:17:58;6;4;
47982;PMS5003;33751;50.816;-1.214;2022-09-21T09:20:33;6;5;
47982;PMS5003;33751;50.816;-1.214;2022-09-21T09:23:05;5;3;
47982;PMS5003;33751;50.816;-1.214;2022-09-21T09:25:37;5;5;
47982;PMS5003;33751;50.816;-1.214;2022-09-21T09:28:12;4;4;
47982;PMS5003;33751;50.816;-1.214;2022-09-21T09:30:48;4;4;
47982;PMS5003;33751;50.816;-1.214;2022-09-21T09:33:23;6;5;
47982;PMS5003;33751;50.816;-1.214;2022-09-21T09:35:54;7;5;
47982;PMS5003;33751;50.816;-1.214;2022-09-21T09:38:28;8;4;
47982;PMS5003;33751;50.816;-1.214;2022-09-21T09:41:07;9;5;
47982;PMS5003;33751;50.816;-1.214;2022-09-21T09:43:52;5;5;
47982;PMS5003;33751;50.816;-1.214;2022-09-21T09:46:29;10;6;
47982;PMS5003;33751;50.816;-1.214;2022-09-21T09:49:04;7;5;
47982;PMS5003;33751;50.816;-1.214;2022-09-21T09:51:40;3;3;
47982;PMS5003;33751;50.816;-1.214;2022-09-21T09:54:11;5;3;
47982;PMS5003;33751;50.816;-1.214;2022-09-21T09:56:40;4;4;
47982;PMS5003;33751;50.816;-1.214;2022-09-21T09:59:09;8;6;
47982;PMS5003;33751;50.816;-1.214;2022-09-21T10:01:43;2;2;
47982;PMS5003;33751;50.816;-1.214;2022-09-21T10:04:12;4;4;
47982;PMS5003;33751;50.816;-1.214;2022-09-21T10:06:41;2;2;
47982;PMS5003;33751;50.816;-1.214;2022-09-21T10:09:25;6;6;
47982;PMS5003;33751;50.816;-1.214;2022-09-21T10:11:55;5;5;
47982;PMS5003;33751;50.816;-1.214;2022-09-21T10:14:25;7;4;
47982;PMS5003;33751;50.816;-1.214;2022-09-21T10:16:56;3;3;
47982;PMS5003;33751;50.816;-1.214;2022-09-21T10:19:30;2;2;
47982;PMS5003;33751;50.816;-1.214;2022-09-21T10:21:58;2;2;
47982;PMS5003;33751;50.816;-1.214;2022-09-21T10:24:28;3;3;
47982;PMS5003;33751;50.816;-1.214;2022-09-21T10:27:01;3;3;
47982;PMS5003;33751;50.816;-1.214;2022-09-21T10:29:32;3;3;
47982;PMS5003;33751;50.816;-1.214;2022-09-21T10:32:16;3;3;
47982;PMS5003;33751;50.816;-1.214;2022-09-21T10:34:59;3;3;
47982;PMS5003;33751;50.816;-1.214;2022-09-21T10:37:39;4;4;
47982;PMS5003;33751;50.816;-1.214;2022-09-21T10:40:15;3;3;
47982;PMS5003;33751;50.816;-1.214;2022-09-21T10:42:50;2;2;
47982;PMS5003;33751;50.816;-1.214;2022-09-21T10:45:20;3;3;
47982;PMS5003;33751;50.816;-1.214;2022-09-21T10:47:50;3;3;
47982;PMS5003;33751;50.816;-1.214;2022-09-21T10:50:21;2;2;
47982;PMS5003;33751;50.816;-1.214;2022-09-21T10:52:53;3;3;
47982;PMS5003;33751;50.816;-1.214;2022-09-21T10:55:24;3;3;
47982;PMS5003;33751;50.816;-1.214;2022-09-21T10:57:52;4;3;
47982;PMS5003;33751;50.816;-1.214;2022-09-21T11:00:30;5;3;
47982;PMS5003;33751;50.816;-1.214;2022-09-21T11:03:00;1;1;
47982;PMS5003;33751;50.816;-1.214;2022-09-21T11:05:33;5;3;
47982;PMS5003;33751;50.816;-1.214;2022-09-21T11:08:04;2;2;
47982;PMS5003;33751;50.816;-1.214;2022-09-21T11:10:43;2;2;
47982;PMS5003;33751;50.816;-1.214;2022-09-21T11:13:19;4;4;
47982;PMS5003;33751;50.816;-1.214;2022-09-21T11:15:54;3;3;
47982;PMS5003;33751;50.816;-1.214;2022-09-21T11:18:33;3;3;
47982;PMS5003;33751;50.816;-1.214;2022-09-21T11:21:11;8;4;
47982;PMS5003;33751;50.816;-1.214;2022-09-21T11:23:47;2;2;
47982;PMS5003;33751;50.816;-1.214;2022-09-21T11:26:22;3;3;
47982;PMS5003;33751;50.816;-1.214;2022-09-21T11:28:52;2;2;
47982;PMS5003;33751;50.816;-1.214;2022-09-21T11:31:36;4;4;
47982;PMS5003;33751;50.816;-1.214;2022-09-21T11:34:18;4;4;
47982;PMS5003;33751;50.816;-1.214;2022-09-21T11:36:59;3;1;
47982;PMS5003;33751;50.816;-1.214;2022-09-21T11:39:41;5;5;
47982;PMS5003;33751;50.816;-1.214;2022-09-21T11:42:20;5;4;
47982;PMS5003;33751;50.816;-1.214;2022-09-21T11:45:03;6;5;
47982;PMS5003;33751;50.816;-1.214;2022-09-21T11:47:48;5;4;
47982;PMS5003;33751;50.816;-1.214;2022-09-21T11:50:33;3;3;
47982;PMS5003;33751;50.816;-1.214;2022-09-21T11:53:15;6;4;
47982;PMS5003;33751;50.816;-1.214;2022-09-21T11:56:09;2;2;
47982;PMS5003;33751;50.816;-1.214;2022-09-21T11:58:49;3;2;
47982;PMS5003;33751;50.816;-1.214;2022-09-21T12:01:27;4;4;
47982;PMS5003;33751;50.816;-1.214;2022-09-21T12:04:09;4;4;
47982;PMS5003;33751;50.816;-1.214;2022-09-21T12:06:50;1;1;
47982;PMS5003;33751;50.816;-1.214;2022-09-21T12:09:34;4;3;
47982;PMS5003;33751;50.816;-1.214;2022-09-21T12:12:13;4;4;
47982;PMS5003;33751;50.816;-1.214;2022-09-21T12:14:46;3;3;
47982;PMS5003;33751;50.816;-1.214;2022-09-21T12:17:21;5;5;
47982;PMS5003;33751;50.816;-1.214;2022-09-21T12:19:57;3;3;
47982;PMS5003;33751;50.816;-1.214;2022-09-21T12:22:33;7;3;
47982;PMS5003;33751;50.816;-1.214;2022-09-21T12:25:04;3;2;
47982;PMS5003;33751;50.816;-1.214;2022-09-21T12:27:40;3;3;
47982;PMS5003;33751;50.816;-1.214;2022-09-21T12:30:14;2;2;
47982;PMS5003;33751;50.816;-1.214;2022-09-21T12:32:47;3;2;
47982;PMS5003;33751;50.816;-1.214;2022-09-21T12:35:21;2;2;
47982;PMS5003;33751;50.816;-1.214;2022-09-21T12:37:55;3;2;
47982;PMS5003;33751;50.816;-1.214;2022-09-21T12:40:28;4;3;
47982;PMS5003;33751;50.816;-1.214;2022-09-21T12:43:03;2;2;
47982;PMS5003;33751;50.816;-1.214;2022-09-21T12:45:34;3;3;
47982;PMS5003;33751;50.816;-1.214;2022-09-21T12:48:05;3;3;
47982;PMS5003;33751;50.816;-1.214;2022-09-21T12:50:41;2;2;
47982;PMS5003;33751;50.816;-1.214;2022-09-21T12:53:14;4;3;
47982;PMS5003;33751;50.816;-1.214;2022-09-21T12:55:48;1;1;
47982;PMS5003;33751;50.816;-1.214;2022-09-21T12:58:23;2;2;
47982;PMS5003;33751;50.816;-1.214;2022-09-21T13:01:04;2;2;
47982;PMS5003;33751;50.816;-1.214;2022-09-21T13:03:43;2;2;
47982;PMS5003;33751;50.816;-1.214;2022-09-21T13:06:44;2;2;
47982;PMS5003;33751;50.816;-1.214;2022-09-21T13:09:25;3;3;
47982;PMS5003;33751;50.816;-1.214;2022-09-21T13:11:54;2;2;
47982;PMS5003;33751;50.816;-1.214;2022-09-21T13:14:25;1;1;
47982;PMS5003;33751;50.816;-1.214;2022-09-21T13:16:55;2;2;
47982;PMS5003;33751;50.816;-1.214;2022-09-21T13:19:26;2;2;
47982;PMS5003;33751;50.816;-1.214;2022-09-21T13:22:19;3;3;
47982;PMS5003;33751;50.816;-1.214;2022-09-21T13:24:56;1;1;
47982;PMS5003;33751;50.816;-1.214;2022-09-21T13:27:49;2;2;
47982;PMS5003;33751;50.816;-1.214;2022-09-21T13:30:28;1;1;
47982;PMS5003;33751;50.816;-1.214;2022-09-21T13:32:59;0;0;
47982;PMS5003;33751;50.816;-1.214;2022-09-21T13:36:01;1;1;
47982;PMS5003;33751;50.816;-1.214;2022-09-21T13:38:41;1;1;
47982;PMS5003;33751;50.816;-1.214;2022-09-21T13:41:24;0;0;
47982;PMS5003;33751;50.816;-1.214;2022-09-21T13:43:59;0;0;
47982;PMS5003;33751;50.816;-1.214;2022-09-21T13:46:59;0;0;
47982;PMS5003;33751;50.816;-1.214;2022-09-21T13:49:27;2;0;
47982;PMS5003;33751;50.816;-1.214;2022-09-21T13:51:59;0;0;
47982;PMS5003;33751;50.816;-1.214;2022-09-21T13:54:28;0;0;
47982;PMS5003;33751;50.816;-1.214;2022-09-21T13:57:00;2;1;
47982;PMS5003;33751;50.816;-1.214;2022-09-21T13:59:31;0;0;
47982;PMS5003;33751;50.816;-1.214;2022-09-21T14:02:00;2;0;
47982;PMS5003;33751;50.816;-1.214;2022-09-21T14:04:30;0;0;
47982;PMS5003;33751;50.816;-1.214;2022-09-21T14:07:01;0;0;
47982;PMS5003;33751;50.816;-1.214;2022-09-21T14:09:33;0;0;
47982;PMS5003;33751;50.816;-1.214;2022-09-21T14:12:07;0;0;
47982;PMS5003;33751;50.816;-1.214;2022-09-21T14:15:08;0;0;
47982;PMS5003;33751;50.816;-1.214;2022-09-21T14:19:10;0;0;
47982;PMS5003;33751;50.816;-1.214;2022-09-21T14:22:41;0;0;
47982;PMS5003;33751;50.816;-1.214;2022-09-21T14:25:49;0;0;
47982;PMS5003;33751;50.816;-1.214;2022-09-21T14:28:19;0;0;
47982;PMS5003;33751;50.816;-1.214;2022-09-21T14:30:59;0;0;
47982;PMS5003;33751;50.816;-1.214;2022-09-21T14:33:32;1;1;
47982;PMS5003;33751;50.816;-1.214;2022-09-21T14:36:07;0;0;
47982;PMS5003;33751;50.816;-1.214;2022-09-21T14:38:42;1;1;
47982;PMS5003;33751;50.816;-1.214;2022-09-21T14:41:12;1;1;
47982;PMS5003;33751;50.816;-1.214;2022-09-21T14:43:42;0;0;
47982;PMS5003;33751;50.816;-1.214;2022-09-21T14:46:26;1;0;
47982;PMS5003;33751;50.816;-1.214;2022-09-21T14:49:04;2;2;
47982;PMS5003;33751;50.816;-1.214;2022-09-21T14:51:46;1;1;
47982;PMS5003;33751;50.816;-1.214;2022-09-21T14:54:21;2;2;
47982;PMS5003;33751;50.816;-1.214;2022-09-21T14:57:01;2;1;
47982;PMS5003;33751;50.816;-1.214;2022-09-21T14:59:43;1;1;
47982;PMS5003;33751;50.816;-1.214;2022-09-21T15:02:22;1;1;
47982;PMS5003;33751;50.816;-1.214;2022-09-21T15:04:58;1;1;
47982;PMS5003;33751;50.816;-1.214;2022-09-21T15:07:36;1;1;
47982;PMS5003;33751;50.816;-1.214;2022-09-21T15:10:18;1;1;
47982;PMS5003;33751;50.816;-1.214;2022-09-21T15:12:51;1;1;
47982;PMS5003;33751;50.816;-1.214;2022-09-21T15:15:33;2;2;
47982;PMS5003;33751;50.816;-1.214;2022-09-21T15:18:11;0;0;
47982;PMS5003;33751;50.816;-1.214;2022-09-21T15:20:40;2;2;
47982;PMS5003;33751;50.816;-1.214;2022-09-21T15:23:18;1;1;
47982;PMS5003;33751;50.816;-1.214;2022-09-21T15:25:52;1;1;
47982;PMS5003;33751;50.816;-1.214;2022-09-21T15:28:24;1;1;
47982;PMS5003;33751;50.816;-1.214;2022-09-21T15:30:51;2;1;
47982;PMS5003;33751;50.816;-1.214;2022-09-21T15:33:23;2;2;
47982;PMS5003;33751;50.816;-1.214;2022-09-21T15:35:50;0;0;
47982;PMS5003;33751;50.816;-1.214;2022-09-21T15:38:26;2;2;
47982;PMS5003;33751;50.816;-1.214;2022-09-21T15:40:54;1;1;
47982;PMS5003;33751;50.816;-1.214;2022-09-21T15:43:21;1;1;
47982;PMS5003;33751;50.816;-1.214;2022-09-21T15:45:48;0;0;
47982;PMS5003;33751;50.816;-1.214;2022-09-21T15:48:17;1;1;
47982;PMS5003;33751;50.816;-1.214;2022-09-21T15:50:44;1;1;
47982;PMS5003;33751;50.816;-1.214;2022-09-21T15:53:21;4;2;
47982;PMS5003;33751;50.816;-1.214;2022-09-21T15:55:52;2;2;
47982;PMS5003;33751;50.816;-1.214;2022-09-21T15:58:22;2;2;
47982;PMS5003;33751;50.816;-1.214;2022-09-21T16:00:56;1;1;
47982;PMS5003;33751;50.816;-1.214;2022-09-21T16:03:23;1;1;
47982;PMS5003;33751;50.816;-1.214;2022-09-21T16:05:51;1;1;
47982;PMS5003;33751;50.816;-1.214;2022-09-21T16:08:20;4;2;
47982;PMS5003;33751;50.816;-1.214;2022-09-21T16:11:09;0;0;
47982;PMS5003;33751;50.816;-1.214;2022-09-21T16:13:38;2;2;
47982;PMS5003;33751;50.816;-1.214;2022-09-21T16:16:06;2;1;
47982;PMS5003;33751;50.816;-1.214;2022-09-21T16:18:39;4;3;
47982;PMS5003;33751;50.816;-1.214;2022-09-21T16:21:15;2;2;
47982;PMS5003;33751;50.816;-1.214;2022-09-21T16:23:47;0;0;
47982;PMS5003;33751;50.816;-1.214;2022-09-21T16:26:18;1;1;
47982;PMS5003;33751;50.816;-1.214;2022-09-21T16:28:47;1;1;
47982;PMS5003;33751;50.816;-1.214;2022-09-21T16:31:22;3;3;
47982;PMS5003;33751;50.816;-1.214;2022-09-21T16:33:59;2;2;
47982;PMS5003;33751;50.816;-1.214;2022-09-21T16:36:46;2;2;
47982;PMS5003;33751;50.816;-1.214;2022-09-21T16:39:14;1;1;
47982;PMS5003;33751;50.816;-1.214;2022-09-21T16:41:44;2;1;
47982;PMS5003;33751;50.816;-1.214;2022-09-21T16:44:14;2;0;
47982;PMS5003;33751;50.816;-1.214;2022-09-21T16:46:43;1;1;
47982;PMS5003;33751;50.816;-1.214;2022-09-21T16:49:10;2;1;
47982;PMS5003;33751;50.816;-1.214;2022-09-21T16:51:38;2;1;
47982;PMS5003;33751;50.816;-1.214;2022-09-21T16:54:05;2;2;
47982;PMS5003;33751;50.816;-1.214;2022-09-21T16:56:32;1;1;
47982;PMS5003;33751;50.816;-1.214;2022-09-21T16:58:59;3;2;
47982;PMS5003;33751;50.816;-1.214;2022-09-21T17:01:27;1;1;
47982;PMS5003;33751;50.816;-1.214;2022-09-21T17:03:53;3;3;
47982;PMS5003;33751;50.816;-1.214;2022-09-21T17:06:20;2;2;
47982;PMS5003;33751;50.816;-1.214;2022-09-21T17:08:48;1;1;